Time;durP1;ratioP1;P1;durP2;ratioP2;P2;SDS_P1;SDS_P2;PMS_P1;PMS_P2;Temp;Humidity;BMP_temperature;BMP_pressure;BME280_temperature;BME280_humidity;BME280_pressure;Samples;Min_cycle;Max_cycle;Signal;HPM_P1;HPM_P2
2023/05/24 00:01:36;;;;;;;;;;;;;;;16.96;64.70;99273.47;5073878;28;19961;-76
2023/05/24 00:04:02;;;;;;;;;;;;;;;16.95;64.89;99271.84;5073627;28;20412;-78
2023/05/24 00:06:27;;;;;;;;;;;;;;;16.95;65.04;99269.97;5072408;28;19919;-76
2023/05/24 00:08:53;;;;;;;;;;;;;;;16.98;64.39;99263.38;5073741;28;19908;-77
2023/05/24 00:11:18;;;;;;;;;;;;;;;17.00;64.85;99267.44;5073620;28;19915;-77
2023/05/24 00:13:44;;;;;;;;;;;;;;;17.00;64.62;99264.78;5073411;28;19904;-77
2023/05/24 00:16:09;;;;;;;;;;;;;;;17.03;64.79;99268.84;5073807;28;20365;-76
2023/05/24 00:18:40;;;;;;;;;;;;;;;17.04;64.43;99260.63;5073536;28;19908;-77
2023/05/24 00:21:08;;;;;;;;;;;;;;;17.06;64.61;99263.88;5072141;28;19961;-76
2023/05/24 00:23:35;;;;;;;;;;;;;;;17.11;64.17;99272.03;5073580;28;19912;-77
2023/05/24 00:26:00;;;;;;;;;;;;;;;17.13;64.12;99275.31;5073579;28;20400;-76
2023/05/24 00:28:26;;;;;;;;;;;;;;;17.11;64.68;99274.72;5073616;28;20005;-76
2023/05/24 00:30:51;;;;;;;;;;;;;;;17.10;64.71;99275.75;5074051;28;19908;-77
2023/05/24 00:33:16;;;;;;;;;;;;;;;17.10;65.06;99269.59;5074191;28;19983;-77
2023/05/24 00:35:42;;;;;;;;;;;;;;;17.11;65.11;99276.56;5073338;28;20099;-76
2023/05/24 00:38:07;;;;;;;;;;;;;;;17.12;64.12;99279.00;5073460;28;19908;-77
2023/05/24 00:40:32;;;;;;;;;;;;;;;17.10;65.20;99272.28;5073215;28;20023;-77
2023/05/24 00:42:57;;;;;;;;;;;;;;;17.10;64.24;99275.75;5071843;28;19904;-77
2023/05/24 00:45:23;;;;;;;;;;;;;;;17.10;65.43;99269.59;5073123;28;19916;-77
2023/05/24 00:47:48;;;;;;;;;;;;;;;17.08;64.35;99271.66;5072261;28;19916;-76
2023/05/24 00:50:15;;;;;;;;;;;;;;;17.11;64.39;99279.25;5072739;28;20372;-77
2023/05/24 00:52:41;;;;;;;;;;;;;;;17.11;64.60;99277.38;5071347;28;19908;-78
2023/05/24 00:55:07;;;;;;;;;;;;;;;17.12;64.48;99275.53;5072631;28;19909;-77
2023/05/24 00:57:33;;;;;;;;;;;;;;;17.06;66.20;99273.72;5072537;28;19947;-77
2023/05/24 00:59:58;;;;;;;;;;;;;;;17.04;64.62;99270.47;5072594;28;19987;-77
2023/05/24 01:02:24;;;;;;;;;;;;;;;17.05;64.56;99277.44;5072481;28;19943;-76
2023/05/24 01:04:49;;;;;;;;;;;;;;;17.01;66.31;99273.59;5072435;28;19958;-76
2023/05/24 01:07:20;;;;;;;;;;;;;;;17.00;64.56;99272.78;5072584;28;19913;-77
2023/05/24 01:09:51;;;;;;;;;;;;;;;17.01;64.46;99278.94;5072604;28;19915;-78
2023/05/24 01:12:37;;;;;;;;;;;;;;;16.99;66.55;99281.00;5072508;28;19987;-77
2023/05/24 01:15:03;;;;;;;;;;;;;;;16.96;65.15;99273.47;5064393;28;19908;-76
2023/05/24 01:17:37;;;;;;;;;;;;;;;16.96;65.53;99274.28;5072381;28;19908;-76
2023/05/24 01:20:07;;;;;;;;;;;;;;;16.99;65.34;99265.00;5072338;28;19909;-77
2023/05/24 01:22:45;;;;;;;;;;;;;;;17.01;65.13;99274.41;5072190;28;19942;-77
2023/05/24 01:25:16;;;;;;;;;;;;;;;16.99;66.02;99262.34;5072282;28;19915;-77
2023/05/24 01:27:42;;;;;;;;;;;;;;;16.98;66.25;99269.53;5071887;28;19916;-77
2023/05/24 01:30:08;;;;;;;;;;;;;;;16.96;65.45;99276.13;5072125;28;19909;-78
2023/05/24 01:32:33;;;;;;;;;;;;;;;16.96;65.17;99271.63;5071930;28;20327;-77
2023/05/24 01:34:58;;;;;;;;;;;;;;;16.96;65.33;99263.59;5070685;28;20365;-76
2023/05/24 01:37:23;;;;;;;;;;;;;;;16.96;64.99;99268.94;5071801;28;19919;-77
2023/05/24 01:39:49;;;;;;;;;;;;;;;16.95;65.43;99266.50;5071850;28;19900;-76
2023/05/24 01:42:26;;;;;;;;;;;;;;;16.91;65.57;99276.00;5073511;28;19916;-77
2023/05/24 01:45:07;;;;;;;;;;;;;;;16.90;64.57;99271.69;5072591;28;19962;-77
2023/05/24 01:47:32;;;;;;;;;;;;;;;16.88;64.82;99265.78;5072617;28;20011;-76
2023/05/24 01:50:01;;;;;;;;;;;;;;;16.87;65.47;99267.63;5072318;28;20065;-77
2023/05/24 01:52:27;;;;;;;;;;;;;;;16.88;64.46;99276.44;5072063;28;19908;-77
2023/05/24 01:54:55;;;;;;;;;;;;;;;16.86;64.37;99279.34;5072463;28;19908;-76
2023/05/24 01:57:21;;;;;;;;;;;;;;;16.85;64.53;99267.03;5072183;28;19908;-76
2023/05/24 01:59:48;;;;;;;;;;;;;;;16.81;65.16;99277.34;5071332;28;19931;-77
2023/05/24 02:02:13;;;;;;;;;;;;;;;16.80;64.82;99272.25;5072228;28;19958;-77
2023/05/24 02:04:39;;;;;;;;;;;;;;;16.78;65.35;99275.13;5072041;28;19956;-77
2023/05/24 02:07:04;;;;;;;;;;;;;;;16.79;65.36;99273.28;5072094;28;20373;-76
2023/05/24 02:09:29;;;;;;;;;;;;;;;16.80;64.96;99277.56;5072028;28;19908;-76
2023/05/24 02:11:54;;;;;;;;;;;;;;;16.80;65.41;99278.38;5072116;28;19908;-76
2023/05/24 02:14:20;;;;;;;;;;;;;;;16.81;65.54;99282.69;5072165;28;19912;-76
2023/05/24 02:16:45;;;;;;;;;;;;;;;16.79;65.86;99281.28;5071995;28;19954;-76
2023/05/24 02:19:11;;;;;;;;;;;;;;;16.79;64.30;99286.59;5072038;28;20041;-76
2023/05/24 02:21:37;;;;;;;;;;;;;;;16.78;64.77;99280.47;5072070;28;19951;-75
2023/05/24 02:24:02;;;;;;;;;;;;;;;16.79;65.18;99283.94;5072036;28;19909;-78
2023/05/24 02:26:27;;;;;;;;;;;;;;;16.77;65.66;99289.50;5072060;28;20375;-77
2023/05/24 02:28:53;;;;;;;;;;;;;;;16.75;65.55;99285.44;5071834;28;19924;-76
2023/05/24 02:31:18;;;;;;;;;;;;;;;16.74;64.63;99289.13;5071829;28;19915;-76
2023/05/24 02:33:43;;;;;;;;;;;;;;;16.71;64.15;99293.06;5070912;28;19970;-76
2023/05/24 02:36:08;;;;;;;;;;;;;;;16.68;63.99;99293.50;5072430;28;19915;-76
2023/05/24 02:38:35;;;;;;;;;;;;;;;16.63;64.14;99287.19;5071812;28;20365;-76
2023/05/24 02:41:01;;;;;;;;;;;;;;;16.56;64.46;99294.44;5071953;28;19912;-75
2023/05/24 02:43:26;;;;;;;;;;;;;;;16.55;64.39;99300.81;5071739;28;19908;-75
2023/05/24 02:45:51;;;;;;;;;;;;;;;16.51;64.52;99298.59;5071444;28;20392;-76
2023/05/24 02:48:17;;;;;;;;;;;;;;;16.46;64.24;99295.78;5071555;28;19915;-76
2023/05/24 02:50:42;;;;;;;;;;;;;;;16.44;64.76;99297.84;5071759;28;19909;-76
2023/05/24 02:53:07;;;;;;;;;;;;;;;16.45;63.93;99296.81;5071792;28;19991;-77
2023/05/24 02:55:33;;;;;;;;;;;;;;;16.36;64.11;99302.66;5071659;28;19908;-77
2023/05/24 02:57:58;;;;;;;;;;;;;;;16.28;64.02;99293.09;5070475;28;19908;-77
2023/05/24 03:00:23;;;;;;;;;;;;;;;16.22;64.28;99299.28;5071317;28;20003;-77
2023/05/24 03:02:49;;;;;;;;;;;;;;;16.15;64.36;99311.84;5072190;28;19915;-77
2023/05/24 03:05:15;;;;;;;;;;;;;;;16.07;64.11;99309.47;5071700;28;19955;-77
2023/05/24 03:07:41;;;;;;;;;;;;;;;16.04;64.54;99308.06;5071248;28;19952;-77
2023/05/24 03:10:06;;;;;;;;;;;;;;;16.04;64.60;99307.25;5071108;28;19908;-77
2023/05/24 03:12:32;;;;;;;;;;;;;;;16.02;64.88;99302.16;5074809;28;19915;-77
2023/05/24 03:14:57;;;;;;;;;;;;;;;16.05;64.55;99299.03;5075111;28;20389;-77
2023/05/24 03:17:22;;;;;;;;;;;;;;;16.06;64.77;99302.53;5074784;28;19908;-76
2023/05/24 03:19:47;;;;;;;;;;;;;;;16.05;64.24;99298.22;5074704;28;19909;-78
2023/05/24 03:22:13;;;;;;;;;;;;;;;16.09;64.26;99305.56;5074954;28;19963;-77
2023/05/24 03:24:38;;;;;;;;;;;;;;;16.12;64.11;99294.47;5074874;28;20367;-78
2023/05/24 03:27:05;;;;;;;;;;;;;;;16.12;64.12;99301.66;5074475;28;19916;-77
2023/05/24 03:29:31;;;;;;;;;;;;;;;16.11;64.15;99302.69;5074371;28;19969;-77
2023/05/24 03:31:56;;;;;;;;;;;;;;;16.11;64.32;99300.03;5074233;28;19912;-76
2023/05/24 03:34:21;;;;;;;;;;;;;;;16.08;64.15;99293.28;5074153;28;20393;-77
2023/05/24 03:36:47;;;;;;;;;;;;;;;16.08;64.22;99303.94;5074353;28;20317;-76
2023/05/24 03:39:12;;;;;;;;;;;;;;;16.08;63.91;99303.13;5074255;28;20405;-77
2023/05/24 03:41:37;;;;;;;;;;;;;;;16.03;64.16;99306.44;5074206;28;19908;-77
2023/05/24 03:44:02;;;;;;;;;;;;;;;16.03;64.25;99301.13;5074245;28;20062;-77
2023/05/24 03:46:28;;;;;;;;;;;;;;;16.01;64.36;99302.38;5072794;28;19913;-77
2023/05/24 03:48:53;;;;;;;;;;;;;;;16.07;64.27;99315.63;5074266;28;19912;-78
2023/05/24 03:51:19;;;;;;;;;;;;;;;16.13;64.04;99320.06;5074106;28;19908;-76
2023/05/24 03:53:44;;;;;;;;;;;;;;;16.16;64.28;99321.47;5073929;28;20367;-77
2023/05/24 03:56:09;;;;;;;;;;;;;;;16.18;64.27;99327.41;5072572;28;19909;-77
2023/05/24 03:58:34;;;;;;;;;;;;;;;16.23;64.30;99324.91;5073658;28;19909;-76
2023/05/24 04:01:00;;;;;;;;;;;;;;;16.26;63.53;99327.13;5072666;28;19916;-77
2023/05/24 04:03:26;;;;;;;;;;;;;;;16.27;64.17;99327.94;5073910;28;19961;-77
2023/05/24 04:05:52;;;;;;;;;;;;;;;16.28;64.16;99332.22;5073844;28;19908;-77
2023/05/24 04:08:17;;;;;;;;;;;;;;;16.32;64.10;99336.91;5073803;28;19956;-77
2023/05/24 04:10:42;;;;;;;;;;;;;;;16.35;63.90;99328.50;5073594;28;19999;-77
2023/05/24 04:13:08;;;;;;;;;;;;;;;16.38;64.50;99333.38;5073557;28;20399;-77
2023/05/24 04:15:33;;;;;;;;;;;;;;;16.45;64.69;99333.31;5073496;28;19920;-77
2023/05/24 04:17:59;;;;;;;;;;;;;;;16.46;65.24;99334.94;5073670;28;19913;-77
2023/05/24 04:20:26;;;;;;;;;;;;;;;16.49;63.97;99337.16;5073717;28;19908;-77
2023/05/24 04:22:51;;;;;;;;;;;;;;;16.48;65.49;99339.00;5072612;28;19908;-76
2023/05/24 04:25:17;;;;;;;;;;;;;;;16.52;64.27;99331.38;5073581;28;19914;-77
2023/05/24 04:27:43;;;;;;;;;;;;;;;16.56;63.93;99335.25;5073373;28;20320;-77
2023/05/24 04:30:09;;;;;;;;;;;;;;;16.60;64.45;99332.94;5073523;28;19909;-77
2023/05/24 04:32:35;;;;;;;;;;;;;;;16.66;64.80;99332.09;5073597;28;19915;-76
2023/05/24 04:35:04;;;;;;;;;;;;;;;16.70;64.27;99339.41;5073424;28;19908;-77
2023/05/24 04:37:30;;;;;;;;;;;;;;;16.75;64.19;99339.56;5072235;28;19909;-77
2023/05/24 04:39:56;;;;;;;;;;;;;;;16.80;64.55;99329.03;5073469;28;20304;-76
2023/05/24 04:42:21;;;;;;;;;;;;;;;16.82;65.33;99336.81;5073227;28;19907;-76
2023/05/24 04:44:46;;;;;;;;;;;;;;;16.87;64.75;99334.28;5073075;28;20311;-77
2023/05/24 04:47:12;;;;;;;;;;;;;;;16.90;64.26;99330.38;5071994;28;19912;-77
2023/05/24 04:49:38;;;;;;;;;;;;;;;16.93;64.49;99327.25;5073304;28;19908;-78
2023/05/24 04:52:04;;;;;;;;;;;;;;;16.95;64.91;99331.31;5073228;28;20333;-77
2023/05/24 04:54:29;;;;;;;;;;;;;;;16.99;64.97;99331.69;5072755;28;19908;-77
2023/05/24 04:56:54;;;;;;;;;;;;;;;17.03;64.78;99331.00;5072702;28;19958;-77
2023/05/24 04:59:19;;;;;;;;;;;;;;;17.09;64.36;99332.81;5072728;28;19909;-76
2023/05/24 05:01:45;;;;;;;;;;;;;;;17.14;64.24;99335.63;5072660;28;19908;-77
2023/05/24 05:04:10;;;;;;;;;;;;;;;17.19;64.05;99337.59;5072611;28;19915;-77
2023/05/24 05:06:39;;;;;;;;;;;;;;;17.24;64.39;99332.41;5072514;28;19912;-76
2023/05/24 05:09:13;;;;;;;;;;;;;;;17.31;63.65;99334.97;5071143;28;19912;-77
2023/05/24 05:11:39;;;;;;;;;;;;;;;17.35;63.78;99338.81;5072449;28;19914;-77
2023/05/24 05:14:05;;;;;;;;;;;;;;;17.38;63.43;99341.84;5072335;28;19998;-78
2023/05/24 05:16:30;;;;;;;;;;;;;;;17.43;63.45;99341.19;5072551;28;19909;-76
2023/05/24 05:18:56;;;;;;;;;;;;;;;17.45;63.72;99339.91;5072222;28;19999;-76
2023/05/24 05:21:21;;;;;;;;;;;;;;;17.50;63.35;99343.75;5072122;28;19908;-77
2023/05/24 05:23:46;;;;;;;;;;;;;;;17.56;63.32;99340.97;5072132;28;19911;-77
2023/05/24 05:26:11;;;;;;;;;;;;;;;17.60;64.03;99342.16;5072054;28;19909;-77
2023/05/24 05:28:37;;;;;;;;;;;;;;;17.68;63.18;99344.53;5072072;28;20316;-77
2023/05/24 05:31:02;;;;;;;;;;;;;;;17.75;62.52;99342.56;5070894;28;19908;-77
2023/05/24 05:33:29;;;;;;;;;;;;;;;17.84;62.21;99350.28;5070660;28;19908;-76
2023/05/24 05:35:54;;;;;;;;;;;;;;;17.89;62.11;99351.22;5072073;28;20433;-77
2023/05/24 05:38:20;;;;;;;;;;;;;;;17.97;61.87;99355.41;5071843;28;19959;-78
2023/05/24 05:40:45;;;;;;;;;;;;;;;17.99;61.50;99355.97;5072043;28;19978;-77
2023/05/24 05:43:10;;;;;;;;;;;;;;;18.03;61.77;99357.97;5072218;28;19908;-77
2023/05/24 05:45:36;;;;;;;;;;;;;;;18.07;61.51;99358.31;5072307;28;20007;-77
2023/05/24 05:48:01;;;;;;;;;;;;;;;18.08;61.29;99350.06;5071857;28;19965;-76
2023/05/24 05:50:26;;;;;;;;;;;;;;;18.07;61.58;99356.47;5070892;28;19955;-76
2023/05/24 05:52:51;;;;;;;;;;;;;;;18.09;61.22;99364.25;5071912;28;19913;-77
2023/05/24 05:55:17;;;;;;;;;;;;;;;18.07;61.05;99360.97;5071978;28;20324;-77
2023/05/24 05:57:42;;;;;;;;;;;;;;;18.13;61.08;99361.91;5071513;28;19916;-77
2023/05/24 06:00:08;;;;;;;;;;;;;;;18.16;61.17;99358.78;5071538;28;20045;-77
2023/05/24 06:02:33;;;;;;;;;;;;;;;18.16;61.37;99359.59;5071707;28;19987;-74
2023/05/24 06:04:59;;;;;;;;;;;;;;;18.15;61.57;99363.31;5071586;28;20003;-77
2023/05/24 06:07:24;;;;;;;;;;;;;;;18.22;61.74;99366.69;5071555;28;20332;-75
2023/05/24 06:09:49;;;;;;;;;;;;;;;18.27;61.41;99371.34;5071635;28;20392;-77
2023/05/24 06:12:15;;;;;;;;;;;;;;;18.33;61.04;99365.88;5071807;28;19915;-75
2023/05/24 06:14:40;;;;;;;;;;;;;;;18.42;60.98;99371.69;5071568;28;19909;-77
2023/05/24 06:17:06;;;;;;;;;;;;;;;18.50;60.29;99368.66;5071468;28;19909;-75
2023/05/24 06:19:31;;;;;;;;;;;;;;;18.54;60.60;99371.69;5071352;28;20297;-77
2023/05/24 06:21:57;;;;;;;;;;;;;;;18.57;60.79;99373.88;5071450;28;19908;-76
2023/05/24 06:24:22;;;;;;;;;;;;;;;18.66;60.48;99375.22;5070145;28;19955;-76
2023/05/24 06:26:49;;;;;;;;;;;;;;;18.69;60.03;99362.19;5071590;28;19913;-77
2023/05/24 06:29:14;;;;;;;;;;;;;;;18.80;59.89;99373.09;5071726;28;19955;-76
2023/05/24 06:31:40;;;;;;;;;;;;;;;18.84;59.60;99364.38;5071677;28;19940;-76
2023/05/24 06:34:05;;;;;;;;;;;;;;;18.91;59.37;99358.88;5071736;28;19950;-76
2023/05/24 06:36:41;;;;;;;;;;;;;;;19.00;59.46;99366.31;5070669;28;19913;-76
2023/05/24 06:39:07;;;;;;;;;;;;;;;19.08;59.25;99362.44;5071789;28;19918;-76
2023/05/24 06:41:32;;;;;;;;;;;;;;;19.15;58.84;99352.41;5071758;28;19991;-78
2023/05/24 06:43:59;;;;;;;;;;;;;;;19.24;58.53;99352.84;5072107;28;19927;-76
2023/05/24 06:46:25;;;;;;;;;;;;;;;19.31;58.87;99351.66;5073414;28;20301;-76
2023/05/24 06:48:50;;;;;;;;;;;;;;;19.43;58.85;99351.63;5076187;28;19915;-77
2023/05/24 06:51:16;;;;;;;;;;;;;;;19.53;59.00;99343.81;5076293;28;20315;-78
2023/05/24 06:53:41;;;;;;;;;;;;;;;19.63;58.98;99348.53;5075090;28;19908;-77
2023/05/24 06:56:08;;;;;;;;;;;;;;;19.70;58.62;99351.84;5075281;28;20304;-77
2023/05/24 06:58:33;;;;;;;;;;;;;;;19.78;59.00;99356.81;5075101;28;20003;-77
2023/05/24 07:00:58;;;;;;;;;;;;;;;19.85;58.86;99343.25;5075057;28;20407;-77
2023/05/24 07:03:24;;;;;;;;;;;;;;;19.89;57.56;99342.53;5075032;28;19916;-76
2023/05/24 07:05:49;;;;;;;;;;;;;;;19.95;57.93;99346.09;5074927;28;19962;-77
2023/05/24 07:08:14;;;;;;;;;;;;;;;19.99;57.42;99342.69;5074769;28;19912;-76
2023/05/24 07:10:40;;;;;;;;;;;;;;;20.05;56.70;99348.13;5074642;28;19908;-77
2023/05/24 07:13:05;;;;;;;;;;;;;;;20.10;56.61;99340.19;5074822;28;19908;-77
2023/05/24 07:15:30;;;;;;;;;;;;;;;20.15;56.37;99346.44;5073554;28;19908;-76
2023/05/24 07:17:56;;;;;;;;;;;;;;;20.23;56.42;99345.22;5074631;28;19912;-77
2023/05/24 07:20:21;;;;;;;;;;;;;;;20.26;55.94;99342.88;5074686;28;19930;-78
2023/05/24 07:22:46;;;;;;;;;;;;;;;20.36;56.38;99341.38;5074890;28;19912;-76
2023/05/24 07:25:11;;;;;;;;;;;;;;;20.44;55.89;99341.00;5074583;28;19908;-77
2023/05/24 07:27:37;;;;;;;;;;;;;;;20.51;55.86;99339.75;5074344;28;20401;-77
2023/05/24 07:30:03;;;;;;;;;;;;;;;20.57;55.08;99346.81;5074697;28;19916;-75
2023/05/24 07:32:28;;;;;;;;;;;;;;;20.60;54.60;99337.47;5074537;28;19919;-75
2023/05/24 07:34:54;;;;;;;;;;;;;;;20.67;55.28;99346.13;5073348;28;20011;-78
2023/05/24 07:37:22;;;;;;;;;;;;;;;20.75;55.52;99348.38;5074396;28;19908;-75
2023/05/24 07:39:48;;;;;;;;;;;;;;;20.84;54.68;99344.25;5074579;28;19908;-77
2023/05/24 07:42:13;;;;;;;;;;;;;;;20.94;55.02;99348.91;5074558;28;19915;-77
2023/05/24 07:44:39;;;;;;;;;;;;;;;21.01;55.11;99348.72;5074066;28;19912;-77
2023/05/24 07:47:04;;;;;;;;;;;;;;;21.02;54.28;99351.16;5073955;28;19912;-77
2023/05/24 07:49:30;;;;;;;;;;;;;;;21.03;54.24;99343.91;5073980;28;20387;-76
2023/05/24 07:51:58;;;;;;;;;;;;;;;21.10;54.08;99347.22;5073887;28;20393;-76
2023/05/24 07:54:24;;;;;;;;;;;;;;;21.16;54.40;99347.03;5073875;28;20436;-75
2023/05/24 07:56:49;;;;;;;;;;;;;;;21.18;54.78;99350.25;5073252;28;19970;-77
2023/05/24 07:59:14;;;;;;;;;;;;;;;21.27;54.37;99342.59;5072845;28;20316;-77
2023/05/24 08:01:40;;;;;;;;;;;;;;;21.29;53.49;99350.41;5073762;28;20003;-76
2023/05/24 08:04:07;;;;;;;;;;;;;;;21.36;53.63;99348.34;5073377;28;20387;-77
2023/05/24 08:06:33;;;;;;;;;;;;;;;21.42;51.89;99352.69;5073468;28;19912;-77
2023/05/24 08:08:59;;;;;;;;;;;;;;;21.49;53.77;99353.31;5073587;28;19951;-76
2023/05/24 08:11:24;;;;;;;;;;;;;;;21.55;53.10;99350.44;5073596;28;19963;-77
2023/05/24 08:13:50;;;;;;;;;;;;;;;21.66;52.20;99350.53;5073600;28;19916;-76
2023/05/24 08:16:15;;;;;;;;;;;;;;;21.76;53.20;99346.06;5073587;28;19915;-77
2023/05/24 08:18:40;;;;;;;;;;;;;;;21.78;53.12;99356.56;5073622;28;19966;-77
2023/05/24 08:21:06;;;;;;;;;;;;;;;21.89;52.49;99352.88;5073325;28;19915;-76
2023/05/24 08:23:50;;;;;;;;;;;;;;;22.02;52.51;99354.31;5073177;28;19946;-77
2023/05/24 08:26:18;;;;;;;;;;;;;;;22.12;52.72;99352.56;5073247;28;19901;-77
2023/05/24 08:28:43;;;;;;;;;;;;;;;22.25;52.35;99356.69;5072946;28;20032;-77
2023/05/24 08:31:08;;;;;;;;;;;;;;;22.25;52.47;99353.97;5071844;28;19987;-76
2023/05/24 08:33:34;;;;;;;;;;;;;;;22.37;50.61;99362.69;5073903;28;20011;-77
2023/05/24 08:35:59;;;;;;;;;;;;;;;22.47;51.16;99359.25;5073263;28;19966;-77
2023/05/24 08:38:25;;;;;;;;;;;;;;;22.59;51.22;99365.25;5073261;28;19908;-77
2023/05/24 08:40:50;;;;;;;;;;;;;;;22.66;51.30;99365.81;5073246;28;19916;-78
2023/05/24 08:43:15;;;;;;;;;;;;;;;22.75;50.78;99364.25;5073073;28;20003;-76
2023/05/24 08:45:41;;;;;;;;;;;;;;;22.85;49.71;99366.22;5071765;28;20282;-77
2023/05/24 08:48:07;;;;;;;;;;;;;;;22.98;50.72;99368.44;5073069;28;19918;-75
2023/05/24 08:50:33;;;;;;;;;;;;;;;23.10;50.15;99370.94;5071725;28;19913;-77
2023/05/24 08:53:01;;;;;;;;;;;;;;;23.17;48.71;99363.41;5073071;28;19938;-76
2023/05/24 08:55:27;;;;;;;;;;;;;;;23.33;50.76;99366.94;5071940;28;19908;-77
2023/05/24 08:57:53;;;;;;;;;;;;;;;23.42;50.02;99366.16;5073166;28;19911;-77
2023/05/24 09:00:19;;;;;;;;;;;;;;;23.57;49.58;99364.59;5071853;28;19909;-76
2023/05/24 09:02:44;;;;;;;;;;;;;;;23.73;49.46;99368.94;5073071;28;19908;-76
2023/05/24 09:05:11;;;;;;;;;;;;;;;23.82;48.38;99367.34;5071498;28;20411;-77
2023/05/24 09:07:36;;;;;;;;;;;;;;;23.97;47.18;99370.06;5072891;28;20392;-77
2023/05/24 09:10:06;;;;;;;;;;;;;;;24.16;47.12;99359.53;5072373;28;19917;-75
2023/05/24 09:12:32;;;;;;;;;;;;;;;24.34;48.09;99367.09;5072981;28;20003;-77
2023/05/24 09:14:57;;;;;;;;;;;;;;;24.52;47.90;99362.19;5073389;28;19908;-75
2023/05/24 09:17:23;;;;;;;;;;;;;;;24.74;46.10;99370.00;5072648;28;19915;-74
2023/05/24 09:19:50;;;;;;;;;;;;;;;24.91;45.98;99373.97;5072510;28;19937;-76
2023/05/24 09:22:19;;;;;;;;;;;;;;;25.12;45.63;99379.31;5072400;28;19908;-77
2023/05/24 09:24:47;;;;;;;;;;;;;;;25.31;44.89;99373.03;5072639;28;20309;-77
2023/05/24 09:27:16;;;;;;;;;;;;;;;25.51;45.04;99371.28;5071301;28;20308;-76
2023/05/24 09:29:44;;;;;;;;;;;;;;;25.69;45.91;99367.97;5072609;28;19916;-74
2023/05/24 09:32:10;;;;;;;;;;;;;;;25.82;43.96;99361.09;5072483;28;19915;-77
2023/05/24 09:34:41;;;;;;;;;;;;;;;25.87;45.92;99356.44;5072528;28;20301;-77
2023/05/24 09:37:12;;;;;;;;;;;;;;;26.01;45.09;99362.06;5072334;28;19908;-76
2023/05/24 09:39:38;;;;;;;;;;;;;;;26.16;45.16;99361.09;5072224;28;19914;-74
2023/05/24 09:42:04;;;;;;;;;;;;;;;26.32;40.02;99365.28;5070878;28;20253;-77
2023/05/24 09:44:29;;;;;;;;;;;;;;;26.39;43.05;99368.50;5072050;28;19908;-75
2023/05/24 09:47:07;;;;;;;;;;;;;;;26.55;43.20;99355.59;5071915;28;19921;-75
2023/05/24 09:49:35;;;;;;;;;;;;;;;26.65;43.60;99352.78;5072051;28;19912;-74
2023/05/24 09:52:00;;;;;;;;;;;;;;;26.76;40.39;99353.50;5072190;28;19943;-77
2023/05/24 09:54:26;;;;;;;;;;;;;;;26.83;41.53;99360.19;5071399;28;19919;-75
2023/05/24 09:56:51;;;;;;;;;;;;;;;27.02;43.73;99354.81;5071752;28;19915;-78
2023/05/24 09:59:17;;;;;;;;;;;;;;;27.11;41.71;99357.69;5071667;28;19915;-76
2023/05/24 10:01:43;;;;;;;;;;;;;;;27.33;38.51;99347.09;5071835;28;20281;-78
2023/05/24 10:04:08;;;;;;;;;;;;;;;27.28;42.10;99339.03;5071882;28;19912;-79
2023/05/24 10:06:37;;;;;;;;;;;;;;;27.50;40.79;99358.25;5071797;28;20018;-77
2023/05/24 10:09:06;;;;;;;;;;;;;;;27.78;39.53;99353.78;5071397;28;19908;-78
2023/05/24 10:11:32;;;;;;;;;;;;;;;27.92;39.61;99342.97;5071520;28;19946;-77
2023/05/24 10:13:58;;;;;;;;;;;;;;;27.97;37.01;99342.06;5071582;28;19956;-79
2023/05/24 10:16:23;;;;;;;;;;;;;;;27.99;38.29;99346.09;5071443;28;19915;-77
2023/05/24 10:18:49;;;;;;;;;;;;;;;28.19;40.88;99350.38;5071507;28;19908;-78
2023/05/24 10:21:16;;;;;;;;;;;;;;;28.17;40.36;99347.16;5072942;28;20011;-79
2023/05/24 10:23:43;;;;;;;;;;;;;;;28.29;37.82;99341.31;5075464;28;19908;-76
2023/05/24 10:26:12;;;;;;;;;;;;;;;28.37;39.23;99341.41;5074131;28;19909;-77
2023/05/24 10:28:41;;;;;;;;;;;;;;;28.47;37.92;99345.84;5074229;28;20286;-78
2023/05/24 10:31:09;;;;;;;;;;;;;;;28.74;37.41;99345.84;5075585;28;19912;-79
2023/05/24 10:33:36;;;;;;;;;;;;;;;28.90;36.70;99338.22;5075619;28;19901;-78
2023/05/24 10:36:02;;;;;;;;;;;;;;;28.97;35.53;99344.03;5075545;28;19985;-78
2023/05/24 10:38:28;;;;;;;;;;;;;;;28.82;36.70;99346.25;5075502;28;20396;-76
2023/05/24 10:40:53;;;;;;;;;;;;;;;28.69;37.35;99337.81;5075425;28;19912;-77
2023/05/24 10:43:20;;;;;;;;;;;;;;;28.21;36.77;99334.59;5075348;28;20274;-77
2023/05/24 10:45:49;;;;;;;;;;;;;;;28.06;37.34;99332.16;5073663;28;19915;-77
2023/05/24 10:48:14;;;;;;;;;;;;;;;28.31;39.67;99322.78;5074962;28;20003;-77
2023/05/24 10:50:40;;;;;;;;;;;;;;;28.52;38.78;99317.78;5075018;28;19958;-78
2023/05/24 10:53:19;;;;;;;;;;;;;;;28.89;36.10;99311.34;5074810;28;19908;-77
2023/05/24 10:55:53;;;;;;;;;;;;;;;29.09;36.16;99313.66;5074844;28;19908;-77
2023/05/24 10:58:19;;;;;;;;;;;;;;;28.99;35.85;99308.44;5074974;28;19931;-77
2023/05/24 11:00:44;;;;;;;;;;;;;;;28.60;36.80;99304.28;5075055;28;20381;-78
2023/05/24 11:03:11;;;;;;;;;;;;;;;28.55;35.41;99301.69;5075076;28;19958;-77
2023/05/24 11:05:54;;;;;;;;;;;;;;;28.72;34.48;99301.88;5074886;28;19919;-78
2023/05/24 11:08:36;;;;;;;;;;;;;;;28.98;35.52;99291.28;5074607;28;19912;-78
2023/05/24 11:11:11;;;;;;;;;;;;;;;29.32;35.02;99301.69;5074574;28;19931;-77
2023/05/24 11:13:37;;;;;;;;;;;;;;;29.48;33.76;99296.72;5074608;28;19983;-77
2023/05/24 11:16:03;;;;;;;;;;;;;;;29.52;35.43;99292.28;5074594;28;19908;-77
2023/05/24 11:18:28;;;;;;;;;;;;;;;29.59;34.92;99302.72;5074413;28;19995;-78
2023/05/24 11:20:55;;;;;;;;;;;;;;;29.93;33.10;99292.09;5074588;28;19919;-77
2023/05/24 11:23:21;;;;;;;;;;;;;;;30.19;31.58;99288.72;5074430;28;20397;-78
2023/05/24 11:25:47;;;;;;;;;;;;;;;30.19;33.79;99288.72;5074725;28;19916;-78
2023/05/24 11:28:13;;;;;;;;;;;;;;;30.33;34.65;99284.78;5074234;28;20327;-78
2023/05/24 11:30:42;;;;;;;;;;;;;;;30.58;33.77;99285.22;5074242;28;19990;-78
2023/05/24 11:33:14;;;;;;;;;;;;;;;30.86;32.45;99294.75;5073849;28;19919;-78
2023/05/24 11:35:40;;;;;;;;;;;;;;;31.07;31.25;99281.31;5074170;28;19981;-78
2023/05/24 11:38:13;;;;;;;;;;;;;;;31.27;30.01;99274.47;5074227;28;19989;-78
2023/05/24 11:40:43;;;;;;;;;;;;;;;31.37;32.44;99279.59;5074756;28;20293;-77
2023/05/24 11:43:13;;;;;;;;;;;;;;;31.32;33.82;99270.78;5074797;28;19915;-76
2023/05/24 11:45:39;;;;;;;;;;;;;;;31.39;31.85;99265.63;5074631;28;19908;-78
2023/05/24 11:48:05;;;;;;;;;;;;;;;31.56;32.37;99274.59;5074968;28;20307;-77
2023/05/24 11:50:31;;;;;;;;;;;;;;;31.67;31.05;99260.63;5074759;28;20385;-76
2023/05/24 11:53:02;;;;;;;;;;;;;;;31.52;31.16;99264.66;5074862;28;19909;-76
2023/05/24 11:55:28;;;;;;;;;;;;;;;30.94;30.99;99263.97;5074558;28;19979;-78
2023/05/24 11:57:55;;;;;;;;;;;;;;;30.87;29.74;99262.84;5074040;28;19920;-76
2023/05/24 12:00:24;;;;;;;;;;;;;;;30.91;31.28;99242.81;5073919;28;19992;-77
2023/05/24 12:02:51;;;;;;;;;;;;;;;30.98;33.59;99240.41;5074240;28;19943;-78
2023/05/24 12:05:17;;;;;;;;;;;;;;;31.04;32.74;99241.03;5073735;28;19914;-79
2023/05/24 12:07:47;;;;;;;;;;;;;;;31.32;33.27;99240.78;5073963;28;19912;-79
2023/05/24 12:10:13;;;;;;;;;;;;;;;31.13;31.75;99244.56;5073690;28;19908;-77
2023/05/24 12:12:41;;;;;;;;;;;;;;;30.81;32.13;99256.75;5073625;28;20373;-78
2023/05/24 12:15:07;;;;;;;;;;;;;;;30.61;32.75;99246.44;5073746;28;19908;-78
2023/05/24 12:17:32;;;;;;;;;;;;;;;30.75;33.29;99247.13;5073785;28;20041;-77
2023/05/24 12:19:57;;;;;;;;;;;;;;;30.74;32.11;99258.34;5073802;28;19908;-76
2023/05/24 12:22:26;;;;;;;;;;;;;;;30.50;34.08;99258.75;5073483;28;20377;-77
2023/05/24 12:24:51;;;;;;;;;;;;;;;29.95;33.65;99259.09;5073485;28;19908;-77
2023/05/24 12:27:16;;;;;;;;;;;;;;;29.55;33.14;99266.38;5072307;28;20403;-77
2023/05/24 12:29:42;;;;;;;;;;;;;;;29.15;34.13;99281.72;5073420;28;19966;-77
2023/05/24 12:32:11;;;;;;;;;;;;;;;28.56;34.25;99280.75;5072394;28;19915;-79
2023/05/24 12:34:36;;;;;;;;;;;;;;;28.04;34.94;99274.66;5073983;28;19908;-78
2023/05/24 12:37:02;;;;;;;;;;;;;;;27.53;35.58;99270.06;5073799;28;19915;-79
2023/05/24 12:39:32;;;;;;;;;;;;;;;27.04;35.53;99271.34;5072444;28;19912;-79
2023/05/24 12:42:00;;;;;;;;;;;;;;;26.66;36.41;99264.22;5073001;28;19916;-77
2023/05/24 12:44:26;;;;;;;;;;;;;;;26.38;35.98;99279.44;5072178;28;19908;-78